createdAt,value
2022-10-22T00:02:58.638Z,97956.78
2022-10-22T00:06:01.297Z,97954.88
2022-10-22T00:09:04.384Z,97948.69
2022-10-22T00:12:07.654Z,97938.09
2022-10-22T00:15:13.391Z,97932.50
2022-10-22T00:18:17.385Z,97925.69
2022-10-22T00:21:20.086Z,97924.59
2022-10-22T00:24:22.766Z,97933.38
2022-10-22T00:27:25.533Z,97934.47
2022-10-22T00:30:28.169Z,97937.66
2022-10-22T00:33:32.175Z,97951.47
2022-10-22T00:36:35.117Z,97962.25
2022-10-22T00:39:37.763Z,97957.19
2022-10-22T00:42:40.531Z,97964.28
2022-10-22T00:45:49.641Z,97959.19
2022-10-22T00:49:00.499Z,97955.06
2022-10-22T00:52:06.582Z,97959.88
2022-10-22T00:55:15.529Z,97948.28
2022-10-22T00:58:23.060Z,97938.59
2022-10-22T01:01:35.552Z,97922.91
2022-10-22T01:04:43.933Z,97938.09
2022-10-22T01:07:56.757Z,97936.06
2022-10-22T01:11:13.297Z,97918.72
2022-10-22T01:14:26.845Z,97900.25
2022-10-22T01:17:41.825Z,97906.94
2022-10-22T01:21:13.189Z,97889.94
2022-10-22T01:24:45.103Z,97858.91
2022-10-22T01:28:02.697Z,97887.91
2022-10-22T01:31:12.951Z,97894.97
2022-10-22T01:34:21.514Z,97897.16
2022-10-22T01:37:31.883Z,97912.88
2022-10-22T01:40:39.308Z,97935.59
2022-10-22T01:43:45.436Z,97928.56
2022-10-22T01:46:56.663Z,97927.50
2022-10-22T01:50:21.468Z,97933.69
2022-10-22T01:53:36.578Z,97938.28
2022-10-22T01:57:01.090Z,97941.47
2022-10-22T02:00:12.259Z,97944.59
2022-10-22T02:03:25.812Z,97950.28
2022-10-22T02:06:35.762Z,97952.19
2022-10-22T02:09:44.078Z,97964.28
2022-10-22T02:12:55.036Z,97965.59
2022-10-22T02:16:03.105Z,97953.50
2022-10-22T02:19:18.963Z,97951.69
2022-10-22T02:22:26.244Z,97932.00
2022-10-22T02:25:35.323Z,97939.63
2022-10-22T02:28:50.876Z,97953.22
2022-10-22T02:32:01.132Z,97954.34
2022-10-22T02:35:10.630Z,97947.81
2022-10-22T02:38:18.675Z,97970.41
2022-10-22T02:41:25.663Z,97958.59
2022-10-22T02:44:34.776Z,97953.53
2022-10-22T02:47:40.956Z,97947.28
2022-10-22T02:50:52.249Z,97949.66
2022-10-22T02:53:58.757Z,97935.28
2022-10-22T02:57:05.617Z,97942.06
2022-10-22T03:00:15.891Z,97946.97
2022-10-22T03:03:24.379Z,97936.31
2022-10-22T03:06:32.875Z,97927.72
2022-10-22T03:09:39.783Z,97940.09
2022-10-22T03:12:46.015Z,97936.44
2022-10-22T03:15:54.256Z,97933.72
2022-10-22T03:19:02.632Z,97937.03
2022-10-22T03:22:16.251Z,97929.13
2022-10-22T03:25:27.162Z,97922.72
2022-10-22T03:28:36.505Z,97927.34
2022-10-22T03:31:42.586Z,97918.84
2022-10-22T03:34:49.644Z,97918.38
2022-10-22T03:37:58.305Z,97922.00
2022-10-22T03:41:04.700Z,97915.66
2022-10-22T03:44:12.420Z,97910.59
2022-10-22T03:47:19.211Z,97902.63
2022-10-22T03:50:24.721Z,97913.50
2022-10-22T03:53:33.448Z,97923.78
2022-10-22T03:56:41.541Z,97932.78
2022-10-22T03:59:51.321Z,97931.81
2022-10-22T04:02:56.403Z,97935.28
2022-10-22T04:06:04.519Z,97921.59
2022-10-22T04:09:12.766Z,97936.59
2022-10-22T04:12:35.705Z,97966.75
2022-10-22T04:16:07.612Z,97955.16
2022-10-22T04:19:17.543Z,97957.56
2022-10-22T04:22:25.279Z,97953.69
2022-10-22T04:25:35.181Z,97965.16
2022-10-22T04:28:47.495Z,97959.94
2022-10-22T04:31:58.875Z,97948.16
2022-10-22T04:35:06.066Z,97933.56
2022-10-22T04:38:14.865Z,97935.97
2022-10-22T04:41:26.695Z,97949.72
2022-10-22T04:44:35.417Z,97941.66
2022-10-22T04:47:43.698Z,97949.88
2022-10-22T04:50:49.936Z,97959.53
2022-10-22T04:54:03.366Z,97962.03
2022-10-22T04:57:16.772Z,97961.25
2022-10-22T05:00:23.488Z,97964.81
2022-10-22T05:03:32.794Z,97965.72
2022-10-22T05:06:45.883Z,97972.72
2022-10-22T05:09:51.907Z,97976.59
2022-10-22T05:13:01.534Z,97975.59
2022-10-22T05:16:23.650Z,97990.50
2022-10-22T05:19:38.762Z,97988.47
2022-10-22T05:26:11.378Z,97989.78
2022-10-22T05:29:29.343Z,98003.41
2022-10-22T05:32:41.153Z,98004.88
2022-10-22T05:36:12.938Z,98013.38
2022-10-22T05:39:26.557Z,98020.19
2022-10-22T05:42:35.811Z,98033.78
2022-10-22T05:46:05.718Z,98039.75
2022-10-22T05:49:19.286Z,98036.06
2022-10-22T05:52:27.078Z,98051.25
2022-10-22T05:55:39.488Z,98058.06
2022-10-22T05:58:49.769Z,98069.06
2022-10-22T06:02:01.642Z,98070.22
2022-10-22T06:05:08.630Z,98074.03
2022-10-22T06:08:18.965Z,98064.00
2022-10-22T06:11:28.878Z,98071.03
2022-10-22T06:14:38.491Z,98082.03
2022-10-22T06:17:49.031Z,98084.13
2022-10-22T06:20:55.749Z,98088.44
2022-10-22T06:24:04.667Z,98087.63
2022-10-22T06:27:10.734Z,98094.41
2022-10-22T06:30:18.879Z,98089.25
2022-10-22T06:33:27.063Z,98111.72
2022-10-22T06:36:34.378Z,98111.59
2022-10-22T06:39:41.752Z,98127.78
2022-10-22T06:42:49.416Z,98127.00
2022-10-22T06:46:01.101Z,98128.09
2022-10-22T06:49:13.458Z,98126.50
2022-10-22T06:52:22.367Z,98131.41
2022-10-22T06:55:32.736Z,98137.56
2022-10-22T06:58:40.964Z,98144.28
2022-10-22T07:01:51.334Z,98152.38
2022-10-22T07:05:06.954Z,98156.38
2022-10-22T07:08:19.012Z,98170.06
2022-10-22T07:11:29.327Z,98162.69
2022-10-22T07:14:35.126Z,98178.00
2022-10-22T07:17:46.215Z,98181.38
2022-10-22T07:20:59.143Z,98181.50
2022-10-22T07:24:06.849Z,98183.59
2022-10-22T07:27:14.687Z,98186.41
2022-10-22T07:30:22.201Z,98197.91
2022-10-22T07:33:28.912Z,98202.88
2022-10-22T07:36:41.281Z,98196.91
2022-10-22T07:39:47.419Z,98196.19
2022-10-22T07:42:53.814Z,98203.59
2022-10-22T07:46:01.178Z,98202.38
2022-10-22T07:49:09.059Z,98203.88
2022-10-22T07:52:17.421Z,98207.25
2022-10-22T07:55:25.605Z,98205.38
2022-10-22T07:58:32.462Z,98209.88
2022-10-22T08:01:39.175Z,98208.66
2022-10-22T08:04:45.779Z,98213.94
2022-10-22T08:07:53.886Z,98217.38
2022-10-22T08:11:05.199Z,98222.25
2022-10-22T08:14:12.354Z,98220.44
2022-10-22T08:17:24.200Z,98220.31
2022-10-22T08:20:30.731Z,98217.78
2022-10-22T08:23:39.380Z,98223.59
2022-10-22T08:26:45.687Z,98220.88
2022-10-22T08:29:53.649Z,98226.16
2022-10-22T08:33:01.068Z,98223.72
2022-10-22T08:36:07.555Z,98224.41
2022-10-22T08:39:16.220Z,98223.47
2022-10-22T08:42:49.373Z,98225.06
2022-10-22T08:46:10.072Z,98234.66
2022-10-22T08:49:23.784Z,98229.44
2022-10-22T08:52:33.538Z,98229.91
2022-10-22T08:55:41.956Z,98230.91
2022-10-22T08:58:53.549Z,98233.19
2022-10-22T09:02:02.580Z,98233.03
2022-10-22T09:05:21.133Z,98236.72
2022-10-22T09:08:35.140Z,98245.22
2022-10-22T09:11:47.694Z,98240.69
2022-10-22T09:15:02.299Z,98239.00
2022-10-22T09:18:32.929Z,98236.19
2022-10-22T09:21:50.839Z,98231.34
2022-10-22T09:25:03.875Z,98227.41
2022-10-22T09:28:18.011Z,98237.69
2022-10-22T09:31:35.109Z,98242.66
2022-10-22T09:34:41.196Z,98242.31
2022-10-22T09:37:55.358Z,98238.09
2022-10-22T09:41:04.394Z,98247.34
2022-10-22T09:44:16.365Z,98244.09
2022-10-22T09:51:14.508Z,98249.88
2022-10-22T09:54:22.595Z,98256.78
2022-10-22T09:57:31.792Z,98264.94
2022-10-22T10:00:44.345Z,98264.28
2022-10-22T10:03:52.159Z,98270.38
2022-10-22T10:06:59.339Z,98271.38
2022-10-22T10:10:05.783Z,98280.34
2022-10-22T10:13:28.564Z,98282.69
2022-10-22T10:16:45.950Z,98279.34
2022-10-22T10:20:04.495Z,98276.63
2022-10-22T10:23:22.965Z,98284.47
2022-10-22T10:26:39.048Z,98292.88
2022-10-22T10:29:54.382Z,98290.31
2022-10-22T10:33:22.148Z,98294.63
2022-10-22T10:36:36.240Z,98290.25
2022-10-22T10:39:55.307Z,98298.28
2022-10-22T10:43:07.088Z,98292.88
2022-10-22T10:46:20.503Z,98299.28
2022-10-22T10:49:32.636Z,98299.06
2022-10-22T10:52:47.346Z,98310.16
2022-10-22T10:56:02.928Z,98296.53
2022-10-22T10:59:19.152Z,98303.44
2022-10-22T11:03:15.086Z,98298.84
2022-10-22T11:06:25.768Z,98296.59
2022-10-22T11:09:38.371Z,98295.53
2022-10-22T11:12:49.451Z,98307.69
2022-10-22T11:16:04.811Z,98305.59
2022-10-22T11:19:22.837Z,98312.34
2022-10-22T11:23:00.320Z,98297.63
2022-10-22T11:26:14.933Z,98294.66
2022-10-22T11:29:29.389Z,98295.13
2022-10-22T11:36:24.334Z,98292.28
2022-10-22T11:43:48.996Z,98292.41
2022-10-22T11:47:48.456Z,98278.72
2022-10-22T11:51:05.441Z,98290.25
2022-10-22T11:58:40.237Z,98279.34
2022-10-22T12:02:38.777Z,98273.00
2022-10-22T12:09:22.088Z,98288.72
2022-10-22T12:12:47.504Z,98282.84
2022-10-22T12:19:43.390Z,98282.03
2022-10-22T12:23:15.892Z,98276.16
2022-10-22T12:26:40.346Z,98271.94
2022-10-22T12:30:08.456Z,98264.22
2022-10-22T12:33:43.659Z,98262.75
2022-10-22T12:37:05.015Z,98266.03
2022-10-22T12:40:29.896Z,98249.06
2022-10-22T12:47:32.183Z,98259.81
2022-10-22T12:50:56.727Z,98261.34
2022-10-22T12:54:12.307Z,98260.44
2022-10-22T12:57:38.793Z,98257.69
2022-10-22T13:04:45.388Z,98251.00
2022-10-22T13:08:04.586Z,98255.66
2022-10-22T13:11:11.835Z,98258.97
2022-10-22T13:14:41.695Z,98261.84
2022-10-22T13:17:51.930Z,98250.56
2022-10-22T13:25:00.701Z,98251.94
2022-10-22T13:28:31.951Z,98257.03
2022-10-22T13:32:11.864Z,98248.06
2022-10-22T13:35:33.739Z,98240.41
2022-10-22T13:39:00.078Z,98237.69
2022-10-22T13:42:59.289Z,98241.19
2022-10-22T13:46:24.346Z,98249.31
2022-10-22T13:53:36.940Z,98246.22
2022-10-22T13:56:56.575Z,98240.13
2022-10-22T14:04:22.148Z,98245.53
2022-10-22T14:11:22.927Z,98245.81
2022-10-22T14:15:00.652Z,98250.56
2022-10-22T14:18:35.164Z,98237.75
2022-10-22T14:25:57.709Z,98236.34
2022-10-22T14:29:12.079Z,98237.53
2022-10-22T14:32:28.867Z,98244.22
2022-10-22T14:35:42.424Z,98233.94
2022-10-22T14:38:55.644Z,98239.44
2022-10-22T14:44:12.058Z,98231.00
2022-10-22T14:46:03.032Z,98239.09
2022-10-22T14:49:07.864Z,98236.75
2022-10-22T14:52:14.843Z,98240.81
2022-10-22T14:55:19.897Z,98238.28
2022-10-22T14:58:22.758Z,98241.06
2022-10-22T15:01:25.520Z,98242.34
2022-10-22T15:04:35.819Z,98245.22
2022-10-22T15:07:40.667Z,98249.25
2022-10-22T15:10:43.607Z,98249.00
2022-10-22T15:13:46.351Z,98256.53
2022-10-22T15:16:49.560Z,98257.84
2022-10-22T15:19:53.205Z,98260.06
2022-10-22T15:22:57.745Z,98253.69
2022-10-22T15:26:00.898Z,98264.44
2022-10-22T15:29:06.977Z,98261.09
2022-10-22T15:32:13.509Z,98256.94
2022-10-22T15:35:16.580Z,98263.06
2022-10-22T15:38:23.521Z,98257.00
2022-10-22T15:41:28.721Z,98247.28
2022-10-22T15:44:35.373Z,98258.63
2022-10-22T15:47:47.681Z,98256.06
2022-10-22T15:51:04.128Z,98247.94
2022-10-22T15:54:10.212Z,98248.25
2022-10-22T15:57:13.370Z,98259.09
2022-10-22T16:00:16.753Z,98265.72
2022-10-22T16:03:19.610Z,98260.09
2022-10-22T16:06:44.714Z,98261.34
2022-10-22T16:09:56.670Z,98263.66
2022-10-22T16:13:01.243Z,98270.78
2022-10-22T16:16:07.352Z,98276.75
2022-10-22T16:19:11.765Z,98278.44
2022-10-22T16:22:15.688Z,98267.88
2022-10-22T16:25:20.073Z,98274.94
2022-10-22T16:28:23.100Z,98273.28
2022-10-22T16:31:26.524Z,98264.75
2022-10-22T16:34:35.339Z,98266.19
2022-10-22T16:37:39.167Z,98270.44
2022-10-22T16:40:43.612Z,98276.56
2022-10-22T16:43:49.337Z,98278.88
2022-10-22T16:46:52.010Z,98290.91
2022-10-22T16:49:54.975Z,98284.00
2022-10-22T16:52:58.051Z,98286.94
2022-10-22T16:56:02.936Z,98297.53
2022-10-22T16:59:05.623Z,98286.59
2022-10-22T17:02:08.360Z,98294.00
2022-10-22T17:05:11.084Z,98293.81
2022-10-22T17:08:14.482Z,98299.03
2022-10-22T17:11:20.384Z,98296.13
2022-10-22T17:14:23.293Z,98294.31
2022-10-22T17:17:26.409Z,98297.03
2022-10-22T17:20:29.152Z,98293.63
2022-10-22T17:23:32.138Z,98299.63
2022-10-22T17:26:37.384Z,98300.72
2022-10-22T17:29:40.073Z,98314.22
2022-10-22T17:32:42.784Z,98307.22
2022-10-22T17:35:45.437Z,98310.84
2022-10-22T17:38:52.819Z,98309.63
2022-10-22T17:41:56.861Z,98312.09
2022-10-22T17:44:59.865Z,98311.91
2022-10-22T17:48:02.971Z,98320.09
2022-10-22T17:51:07.764Z,98326.00
2022-10-22T17:54:10.644Z,98328.00
2022-10-22T17:57:14.968Z,98328.28
2022-10-22T18:03:27.912Z,98338.28
2022-10-22T18:06:32.230Z,98335.91
2022-10-22T18:09:35.219Z,98326.78
2022-10-22T18:12:39.664Z,98327.28
2022-10-22T18:15:44.356Z,98322.09
2022-10-22T18:18:48.538Z,98322.88
2022-10-22T18:21:51.756Z,98320.78
2022-10-22T18:24:54.726Z,98323.47
2022-10-22T18:27:59.315Z,98321.28
2022-10-22T18:31:06.868Z,98326.78
2022-10-22T18:34:09.629Z,98326.28
2022-10-22T18:37:13.363Z,98323.34
2022-10-22T18:40:18.762Z,98326.25
2022-10-22T18:43:23.218Z,98322.22
2022-10-22T18:46:27.156Z,98322.84
2022-10-22T18:49:30.266Z,98320.13
2022-10-22T18:52:33.705Z,98318.81
2022-10-22T18:55:39.398Z,98323.19
2022-10-22T18:58:46.971Z,98326.56
2022-10-22T19:01:51.449Z,98313.94
2022-10-22T19:04:54.311Z,98311.41
2022-10-22T19:07:57.179Z,98310.09
2022-10-22T19:11:00.003Z,98310.94
2022-10-22T19:14:04.282Z,98323.16
2022-10-22T19:17:07.131Z,98315.63
2022-10-22T19:20:10.982Z,98318.09
2022-10-22T19:23:18.488Z,98316.50
2022-10-22T19:26:25.560Z,98314.59
2022-10-22T19:29:29.632Z,98317.25
2022-10-22T19:32:32.564Z,98315.94
2022-10-22T19:35:37.411Z,98325.09
2022-10-22T19:38:41.494Z,98323.28
2022-10-22T19:41:44.623Z,98317.59
2022-10-22T19:44:49.133Z,98308.19
2022-10-22T19:47:52.324Z,98310.88
2022-10-22T19:50:59.647Z,98312.72
2022-10-22T19:54:04.710Z,98312.72
2022-10-22T19:57:07.868Z,98305.66
2022-10-22T20:00:13.448Z,98309.41
2022-10-22T20:03:16.607Z,98310.53
2022-10-22T20:06:20.435Z,98309.72
2022-10-22T20:09:23.429Z,98317.81
2022-10-22T20:12:26.458Z,98321.31
2022-10-22T20:15:32.781Z,98325.09
2022-10-22T20:18:35.696Z,98327.53
2022-10-22T20:21:40.291Z,98327.56
2022-10-22T20:24:43.173Z,98332.16
2022-10-22T20:27:45.944Z,98322.56
2022-10-22T20:30:50.067Z,98328.53
2022-10-22T20:33:53.278Z,98324.44
2022-10-22T20:36:56.214Z,98335.88
2022-10-22T20:39:59.154Z,98338.38
2022-10-22T20:43:02.432Z,98348.03
2022-10-22T20:46:06.969Z,98347.81
2022-10-22T20:49:11.866Z,98338.16
2022-10-22T20:52:14.711Z,98335.72
2022-10-22T20:55:18.028Z,98341.41
2022-10-22T20:58:24.456Z,98332.59
2022-10-22T21:01:34.474Z,98321.13
2022-10-22T21:04:39.491Z,98332.72
2022-10-22T21:07:44.834Z,98335.19
2022-10-22T21:10:49.152Z,98336.63
2022-10-22T21:13:52.398Z,98325.66
2022-10-22T21:16:56.955Z,98318.38
2022-10-22T21:20:00.192Z,98317.25
2022-10-22T21:23:03.375Z,98318.13
2022-10-22T21:26:06.592Z,98314.41
2022-10-22T21:29:09.573Z,98318.75
2022-10-22T21:32:13.827Z,98324.94
2022-10-22T21:35:16.922Z,98329.53
2022-10-22T21:38:20.723Z,98329.03
2022-10-22T21:41:25.047Z,98326.34
2022-10-22T21:44:28.234Z,98317.16
2022-10-22T21:47:32.381Z,98321.75
2022-10-22T21:50:35.167Z,98328.53
2022-10-22T21:53:38.588Z,98319.13
2022-10-22T21:56:43.962Z,98312.13
2022-10-22T21:59:46.679Z,98318.91
2022-10-22T22:02:51.158Z,98317.88
2022-10-22T22:05:58.878Z,98319.75
2022-10-22T22:09:03.228Z,98313.84
2022-10-22T22:12:06.264Z,98315.50
2022-10-22T22:15:10.234Z,98319.81
2022-10-22T22:18:14.793Z,98331.97
2022-10-22T22:21:20.641Z,98331.97
2022-10-22T22:24:23.651Z,98322.25
2022-10-22T22:27:28.924Z,98324.72
2022-10-22T22:30:32.019Z,98332.47
2022-10-22T22:33:36.340Z,98336.50
2022-10-22T22:36:41.512Z,98328.41
2022-10-22T22:39:44.499Z,98326.56
2022-10-22T22:42:47.437Z,98331.16
2022-10-22T22:46:00.015Z,98326.06
2022-10-22T22:49:05.522Z,98326.16
2022-10-22T22:52:08.319Z,98317.00
2022-10-22T22:55:11.372Z,98311.09
2022-10-22T22:58:14.118Z,98308.72
2022-10-22T23:01:20.962Z,98315.19
2022-10-22T23:04:25.286Z,98311.47
2022-10-22T23:07:28.022Z,98312.84
2022-10-22T23:10:30.746Z,98309.63
2022-10-22T23:13:33.831Z,98312.59
2022-10-22T23:16:38.999Z,98312.31
2022-10-22T23:19:43.855Z,98298.03
2022-10-22T23:22:46.620Z,98292.66
2022-10-22T23:25:49.804Z,98285.72
2022-10-22T23:28:52.766Z,98288.78
2022-10-22T23:31:56.562Z,98288.53
2022-10-22T23:35:00.665Z,98290.97
2022-10-22T23:38:04.282Z,98289.09
2022-10-22T23:41:08.176Z,98293.72
2022-10-22T23:44:11.204Z,98290.81
2022-10-22T23:47:13.917Z,98289.19
2022-10-22T23:50:18.272Z,98281.09
2022-10-22T23:53:21.136Z,98278.94
2022-10-22T23:56:24.293Z,98271.44
2022-10-22T23:59:27.132Z,98263.31
